createdAt,value
2022-11-09T00:02:28.590Z,17.70
2022-11-09T00:05:32.350Z,15.70
2022-11-09T00:08:37.802Z,20.80
2022-11-09T00:11:41.389Z,14.10
2022-11-09T00:14:45.186Z,16.60
2022-11-09T00:17:48.730Z,15.80
2022-11-09T00:20:52.343Z,16.50
2022-11-09T00:23:56.863Z,17.00
2022-11-09T00:27:00.625Z,17.60
2022-11-09T00:30:04.995Z,16.10
2022-11-09T00:33:10.701Z,15.70
2022-11-09T00:36:14.791Z,15.70
2022-11-09T00:39:18.745Z,17.20
2022-11-09T00:42:22.536Z,18.70
2022-11-09T00:45:26.145Z,18.20
2022-11-09T00:48:29.849Z,14.60
2022-11-09T00:51:33.551Z,13.10
2022-11-09T00:54:37.150Z,13.00
2022-11-09T00:57:40.861Z,11.10
2022-11-09T01:00:44.526Z,11.70
2022-11-09T01:03:48.566Z,12.70
2022-11-09T01:06:52.296Z,10.60
2022-11-09T01:09:56.095Z,11.20
2022-11-09T01:12:59.933Z,10.20
2022-11-09T01:16:07.852Z,7.60
2022-11-09T01:19:12.650Z,9.30
2022-11-09T01:22:18.402Z,9.50
2022-11-09T01:25:22.102Z,8.40
2022-11-09T01:28:25.774Z,9.80
2022-11-09T01:31:29.520Z,9.10
2022-11-09T01:34:33.646Z,14.10
2022-11-09T01:37:37.440Z,12.50
2022-11-09T01:40:41.564Z,13.20
2022-11-09T01:43:46.382Z,14.00
2022-11-09T01:46:55.315Z,14.80
2022-11-09T01:50:00.783Z,12.60
2022-11-09T01:53:09.216Z,11.90
2022-11-09T01:56:14.815Z,14.50
2022-11-09T01:59:22.279Z,17.50
2022-11-09T02:02:26.073Z,18.60
2022-11-09T02:05:33.642Z,17.50
2022-11-09T02:08:37.910Z,17.30
2022-11-09T02:11:41.659Z,17.50
2022-11-09T02:14:47.761Z,14.90
2022-11-09T02:17:53.739Z,15.80
2022-11-09T02:20:58.638Z,15.10
2022-11-09T02:24:02.761Z,15.10
2022-11-09T02:27:07.088Z,16.00
2022-11-09T02:30:13.683Z,16.80
2022-11-09T02:33:18.019Z,16.10
2022-11-09T02:36:23.043Z,15.90
2022-11-09T02:39:28.670Z,14.60
2022-11-09T02:42:32.644Z,14.00
2022-11-09T02:45:36.316Z,12.10
2022-11-09T02:48:40.056Z,12.90
2022-11-09T02:51:43.679Z,12.70
2022-11-09T02:54:47.674Z,13.00
2022-11-09T02:57:51.324Z,17.00
2022-11-09T03:00:55.059Z,16.50
2022-11-09T03:03:58.792Z,14.20
2022-11-09T03:07:02.524Z,14.30
2022-11-09T03:10:07.971Z,14.00
2022-11-09T03:13:11.700Z,11.40
2022-11-09T03:16:15.461Z,10.60
2022-11-09T03:19:19.170Z,10.30
2022-11-09T03:22:22.893Z,9.90
2022-11-09T03:25:27.061Z,9.50
2022-11-09T03:28:30.738Z,12.30
2022-11-09T03:31:34.503Z,12.30
2022-11-09T03:34:38.262Z,8.80
2022-11-09T03:37:41.967Z,11.90
2022-11-09T03:40:45.733Z,11.20
2022-11-09T03:43:49.394Z,10.10
2022-11-09T03:46:53.074Z,10.50
2022-11-09T03:49:56.842Z,9.10
2022-11-09T03:53:01.222Z,8.40
2022-11-09T03:56:05.218Z,8.20
2022-11-09T03:59:08.986Z,6.80
2022-11-09T04:02:12.666Z,5.80
2022-11-09T04:05:16.630Z,5.70
2022-11-09T04:08:20.515Z,4.70
2022-11-09T04:11:24.160Z,4.70
2022-11-09T04:14:27.824Z,5.50
2022-11-09T04:17:31.638Z,5.40
2022-11-09T04:20:35.281Z,5.40
2022-11-09T04:23:39.050Z,4.90
2022-11-09T04:26:42.897Z,6.20
2022-11-09T04:29:46.434Z,5.10
2022-11-09T04:32:50.102Z,5.40
2022-11-09T04:35:53.873Z,5.60
2022-11-09T04:38:57.510Z,7.60
2022-11-09T04:42:01.531Z,8.10
2022-11-09T04:45:06.566Z,8.50
2022-11-09T04:48:11.989Z,7.70
2022-11-09T04:51:15.634Z,7.50
2022-11-09T04:54:19.383Z,7.10
2022-11-09T04:57:23.053Z,7.40
2022-11-09T05:00:26.859Z,6.90
2022-11-09T05:03:30.659Z,6.40
2022-11-09T05:06:34.593Z,5.80
2022-11-09T05:09:38.533Z,5.70
2022-11-09T05:12:45.876Z,5.40
2022-11-09T05:15:49.893Z,6.80
2022-11-09T05:18:53.446Z,6.80
2022-11-09T05:22:17.217Z,7.20
2022-11-09T05:25:20.859Z,7.50
2022-11-09T05:28:24.448Z,6.40
2022-11-09T05:31:28.807Z,8.00
2022-11-09T05:34:32.829Z,8.40
2022-11-09T05:37:37.833Z,7.50
2022-11-09T05:40:41.600Z,7.70
2022-11-09T05:43:45.579Z,7.10
2022-11-09T05:46:50.095Z,7.20
2022-11-09T05:49:53.845Z,10.50
2022-11-09T05:52:59.747Z,10.50
2022-11-09T05:56:04.703Z,11.60
2022-11-09T05:59:09.381Z,12.80
2022-11-09T06:02:13.350Z,11.10
2022-11-09T06:05:17.302Z,14.00
2022-11-09T06:08:21.100Z,14.40
2022-11-09T06:11:24.752Z,14.60
2022-11-09T06:14:28.347Z,17.20
2022-11-09T06:17:32.121Z,15.80
2022-11-09T06:20:35.891Z,17.60
2022-11-09T06:23:39.631Z,21.60
2022-11-09T06:26:43.398Z,22.80
2022-11-09T06:29:46.936Z,27.00
2022-11-09T06:32:50.646Z,16.30
2022-11-09T06:35:56.466Z,21.40
2022-11-09T06:39:00.461Z,21.40
2022-11-09T06:42:04.344Z,18.80
2022-11-09T06:45:10.242Z,15.60
2022-11-09T06:48:14.198Z,13.20
2022-11-09T06:51:18.210Z,12.40
2022-11-09T06:54:21.853Z,11.90
2022-11-09T06:57:25.556Z,12.00
2022-11-09T07:00:29.479Z,14.70
2022-11-09T07:03:33.100Z,12.90
2022-11-09T07:06:41.177Z,13.10
2022-11-09T07:09:44.953Z,14.40
2022-11-09T07:12:49.476Z,12.20
2022-11-09T07:15:54.866Z,11.70
2022-11-09T07:18:58.757Z,12.10
2022-11-09T07:22:02.501Z,11.00
2022-11-09T07:25:08.136Z,10.90
2022-11-09T07:28:12.742Z,10.80
2022-11-09T07:31:16.468Z,11.60
2022-11-09T07:34:20.166Z,11.90
2022-11-09T07:37:23.879Z,10.70
2022-11-09T07:40:27.507Z,11.10
2022-11-09T07:43:31.350Z,11.30
2022-11-09T07:46:35.542Z,11.60
2022-11-09T07:49:39.378Z,11.80
2022-11-09T07:52:43.023Z,11.70
2022-11-09T07:55:46.687Z,10.50
2022-11-09T07:58:51.744Z,10.50
2022-11-09T08:01:55.618Z,11.10
2022-11-09T08:04:59.278Z,10.40
2022-11-09T08:08:04.828Z,11.70
2022-11-09T08:11:08.599Z,12.00
2022-11-09T08:14:12.783Z,11.10
2022-11-09T08:17:16.544Z,10.50
2022-11-09T08:20:21.168Z,10.30
2022-11-09T08:23:24.855Z,10.20
2022-11-09T08:26:28.479Z,11.50
2022-11-09T08:29:32.064Z,10.70
2022-11-09T08:32:36.033Z,10.20
2022-11-09T08:35:39.780Z,9.30
2022-11-09T08:38:44.962Z,10.20
2022-11-09T08:41:48.512Z,10.70
2022-11-09T08:44:52.199Z,10.10
2022-11-09T08:47:59.540Z,11.30
2022-11-09T08:51:03.226Z,8.90
2022-11-09T08:54:07.362Z,8.80
2022-11-09T08:57:11.992Z,7.90
2022-11-09T09:00:17.667Z,8.60
2022-11-09T09:03:21.345Z,8.00
2022-11-09T09:06:30.668Z,9.50
2022-11-09T09:09:37.178Z,7.90
2022-11-09T09:12:40.946Z,8.00
2022-11-09T09:15:44.489Z,7.60
2022-11-09T09:18:49.807Z,8.00
2022-11-09T09:21:53.906Z,8.70
2022-11-09T09:24:57.563Z,7.30
2022-11-09T09:28:01.153Z,8.90
2022-11-09T09:31:05.026Z,8.50
2022-11-09T09:34:08.899Z,7.70
2022-11-09T09:37:12.552Z,8.00
2022-11-09T09:40:25.307Z,7.30
2022-11-09T09:43:37.181Z,7.20
2022-11-09T09:46:47.323Z,7.20
2022-11-09T09:49:58.460Z,7.10
2022-11-09T09:53:23.871Z,7.20
2022-11-09T09:56:33.973Z,7.20
2022-11-09T09:59:42.330Z,7.00
2022-11-09T10:02:46.193Z,7.20
2022-11-09T10:05:58.519Z,7.10
2022-11-09T10:09:10.124Z,7.00
2022-11-09T10:12:25.673Z,7.50
2022-11-09T10:15:34.396Z,7.30
2022-11-09T10:18:48.038Z,7.90
2022-11-09T10:21:57.804Z,7.30
2022-11-09T10:25:27.333Z,6.20
2022-11-09T10:29:09.129Z,6.60
2022-11-09T10:32:16.385Z,6.90
2022-11-09T10:35:27.566Z,6.70
2022-11-09T10:38:36.902Z,6.10
2022-11-09T10:41:43.681Z,6.30
2022-11-09T10:44:46.698Z,7.30
2022-11-09T10:47:51.195Z,6.20
2022-11-09T10:50:54.145Z,7.00
2022-11-09T10:54:15.429Z,6.90
2022-11-09T10:57:21.254Z,6.40
2022-11-09T11:00:24.667Z,6.80
2022-11-09T11:03:28.409Z,7.20
2022-11-09T11:06:31.513Z,6.90
2022-11-09T11:09:34.588Z,7.30
2022-11-09T11:12:37.437Z,7.60
2022-11-09T11:15:42.025Z,6.90
2022-11-09T11:18:47.269Z,6.80
2022-11-09T11:22:15.381Z,7.90
2022-11-09T11:25:21.340Z,11.10
2022-11-09T11:28:31.858Z,7.60
2022-11-09T11:31:34.795Z,6.80
2022-11-09T11:34:59.313Z,7.30
2022-11-09T11:38:16.776Z,7.00
2022-11-09T11:41:46.387Z,7.10
2022-11-09T11:45:34.070Z,6.80
2022-11-09T11:48:55.650Z,6.50
2022-11-09T11:52:06.390Z,6.70
2022-11-09T11:55:23.930Z,6.90
2022-11-09T11:58:43.825Z,6.70
2022-11-09T12:02:18.348Z,7.00
2022-11-09T12:05:46.102Z,6.90
2022-11-09T12:09:01.827Z,6.10
2022-11-09T12:12:15.058Z,7.80
2022-11-09T12:15:27.943Z,6.60
2022-11-09T12:18:44.453Z,6.60
2022-11-09T12:21:55.402Z,7.10
2022-11-09T12:25:09.586Z,6.70
2022-11-09T12:28:29.376Z,6.50
2022-11-09T12:31:46.716Z,6.80
2022-11-09T12:34:57.105Z,5.90
2022-11-09T12:38:08.206Z,6.80
2022-11-09T12:41:15.741Z,6.70
2022-11-09T12:44:22.679Z,6.80
2022-11-09T12:47:31.712Z,6.80
2022-11-09T12:50:36.157Z,6.70
2022-11-09T12:53:40.377Z,6.50
2022-11-09T12:56:51.770Z,6.30
2022-11-09T12:59:56.081Z,6.60
2022-11-09T13:03:02.223Z,7.30
2022-11-09T13:06:17.796Z,7.50
2022-11-09T13:09:25.318Z,7.30
2022-11-09T13:12:38.715Z,7.80
2022-11-09T13:16:10.948Z,7.00
2022-11-09T13:19:54.280Z,6.60
2022-11-09T13:23:01.660Z,7.10
2022-11-09T13:26:05.628Z,6.40
2022-11-09T13:29:20.418Z,6.80
2022-11-09T13:32:28.830Z,6.60
2022-11-09T13:36:16.469Z,6.80
2022-11-09T13:39:38.504Z,6.00
2022-11-09T13:42:41.676Z,6.60
2022-11-09T13:45:46.279Z,6.10
2022-11-09T13:48:50.499Z,6.90
2022-11-09T13:51:53.981Z,7.90
2022-11-09T13:54:57.213Z,6.50
2022-11-09T13:58:03.790Z,6.90
2022-11-09T14:01:23.886Z,6.80
2022-11-09T14:04:28.365Z,10.80
2022-11-09T14:07:34.738Z,12.20
2022-11-09T14:10:54.735Z,13.80
2022-11-09T14:14:17.702Z,19.20
2022-11-09T14:17:29.064Z,15.60
2022-11-09T14:20:40.831Z,16.90
2022-11-09T14:23:43.813Z,15.50
2022-11-09T14:27:12.404Z,16.20
2022-11-09T14:30:20.864Z,15.10
2022-11-09T14:33:26.016Z,15.10
2022-11-09T14:36:30.535Z,15.70
2022-11-09T14:39:34.498Z,14.60
2022-11-09T14:42:40.795Z,16.00
2022-11-09T14:45:50.646Z,14.90
2022-11-09T14:48:55.173Z,14.00
2022-11-09T14:51:58.775Z,15.70
2022-11-09T14:55:02.082Z,16.30
2022-11-09T14:58:05.371Z,16.70
2022-11-09T15:01:16.211Z,16.20
2022-11-09T15:04:23.075Z,18.60
2022-11-09T15:07:29.855Z,16.90
2022-11-09T15:10:33.815Z,15.40
2022-11-09T15:13:39.495Z,14.10
2022-11-09T15:16:42.833Z,14.80
2022-11-09T15:19:51.220Z,14.50
2022-11-09T15:22:55.885Z,13.10
2022-11-09T15:25:58.865Z,12.10
2022-11-09T15:29:03.244Z,14.70
2022-11-09T15:32:17.568Z,14.70
2022-11-09T15:35:20.944Z,14.40
2022-11-09T15:38:33.373Z,15.00
2022-11-09T15:41:37.377Z,12.10
2022-11-09T15:44:40.346Z,11.40
2022-11-09T15:47:51.380Z,29.70
2022-11-09T15:50:54.570Z,27.60
2022-11-09T15:53:57.514Z,12.10
2022-11-09T15:57:00.505Z,14.30
2022-11-09T16:00:12.612Z,14.00
2022-11-09T16:03:17.349Z,17.10
2022-11-09T16:06:21.810Z,17.40
2022-11-09T16:09:24.750Z,15.60
2022-11-09T16:12:27.640Z,16.60
2022-11-09T16:15:31.140Z,15.10
2022-11-09T16:18:34.628Z,20.40
2022-11-09T16:21:37.628Z,25.60
2022-11-09T16:24:41.542Z,32.60
2022-11-09T16:27:52.214Z,34.80
2022-11-09T16:30:55.226Z,34.70
2022-11-09T16:33:58.703Z,38.70
2022-11-09T16:37:03.461Z,24.90
2022-11-09T16:40:11.871Z,19.60
2022-11-09T16:43:15.152Z,22.20
2022-11-09T16:46:22.667Z,22.00
2022-11-09T16:49:25.712Z,48.20
2022-11-09T16:52:29.031Z,32.30
2022-11-09T16:55:32.221Z,24.20
2022-11-09T16:58:35.620Z,44.70
2022-11-09T17:01:38.564Z,40.60
2022-11-09T17:04:41.523Z,24.80
2022-11-09T17:07:46.432Z,24.30
2022-11-09T17:10:49.343Z,25.50
2022-11-09T17:13:56.531Z,26.20
2022-11-09T17:16:59.495Z,25.30
2022-11-09T17:20:05.096Z,25.30
2022-11-09T17:23:08.343Z,24.20
2022-11-09T17:26:12.358Z,34.70
2022-11-09T17:29:15.858Z,28.60
2022-11-09T17:32:24.375Z,39.70
2022-11-09T17:35:28.227Z,34.30
2022-11-09T17:38:32.632Z,29.10
2022-11-09T17:41:41.502Z,29.20
2022-11-09T17:44:45.755Z,32.70
2022-11-09T17:47:49.205Z,30.80
2022-11-09T17:50:53.305Z,27.10
2022-11-09T17:53:57.366Z,67.60
2022-11-09T17:57:01.762Z,43.50
2022-11-09T18:00:09.845Z,31.60
2022-11-09T18:03:13.323Z,24.40
2022-11-09T18:06:19.382Z,28.90
2022-11-09T18:12:46.044Z,26.80
2022-11-09T18:15:49.619Z,28.40
2022-11-09T18:18:58.208Z,28.80
2022-11-09T18:22:03.042Z,34.40
2022-11-09T18:25:08.482Z,27.60
2022-11-09T18:28:12.908Z,22.60
2022-11-09T18:31:16.167Z,22.30
2022-11-09T18:34:19.154Z,23.40
2022-11-09T18:37:24.224Z,19.00
2022-11-09T18:40:28.000Z,17.90
2022-11-09T18:43:32.142Z,18.40
2022-11-09T18:46:35.434Z,19.70
2022-11-09T18:49:38.417Z,21.70
2022-11-09T18:52:41.704Z,23.40
2022-11-09T18:55:45.145Z,21.40
2022-11-09T18:58:49.994Z,18.20
2022-11-09T19:01:53.433Z,25.20
2022-11-09T19:04:56.422Z,29.10
2022-11-09T19:07:59.322Z,29.80
2022-11-09T19:11:06.508Z,34.20
2022-11-09T19:14:10.087Z,20.60
2022-11-09T19:17:14.710Z,22.10
2022-11-09T19:20:18.275Z,20.20
2022-11-09T19:23:21.322Z,27.70
2022-11-09T19:26:24.312Z,29.50
2022-11-09T19:29:27.306Z,30.30
2022-11-09T19:32:32.412Z,38.80
2022-11-09T19:35:37.381Z,38.60
2022-11-09T19:38:40.673Z,107.80
2022-11-09T19:41:44.276Z,51.70
2022-11-09T19:44:49.845Z,27.50
2022-11-09T19:47:56.807Z,30.60
2022-11-09T19:51:01.041Z,41.40
2022-11-09T19:54:05.775Z,41.10
2022-11-09T19:57:09.483Z,41.30
2022-11-09T20:00:15.754Z,47.20
2022-11-09T20:06:22.837Z,40.90
2022-11-09T20:09:29.655Z,50.20
2022-11-09T20:12:54.149Z,53.90
2022-11-09T20:16:01.914Z,57.10
2022-11-09T20:19:08.765Z,55.10
2022-11-09T20:22:12.599Z,46.10
2022-11-09T20:25:16.509Z,48.30
2022-11-09T20:28:20.562Z,45.20
2022-11-09T20:31:24.701Z,42.90
2022-11-09T20:34:30.559Z,41.80
2022-11-09T20:37:34.263Z,45.90
2022-11-09T20:40:37.914Z,39.50
2022-11-09T20:43:42.287Z,41.80
2022-11-09T20:46:45.851Z,38.50
2022-11-09T20:49:49.538Z,35.80
2022-11-09T20:52:53.310Z,39.50
2022-11-09T20:55:56.849Z,40.60
2022-11-09T20:59:00.481Z,37.20
2022-11-09T21:02:04.332Z,36.30
2022-11-09T21:05:08.839Z,47.20
2022-11-09T21:08:12.563Z,28.10
2022-11-09T21:11:16.720Z,34.40
2022-11-09T21:14:20.490Z,30.60
2022-11-09T21:17:24.577Z,21.90
2022-11-09T21:20:28.278Z,15.40
2022-11-09T21:23:50.177Z,20.40
2022-11-09T21:27:11.694Z,17.10
2022-11-09T21:30:15.836Z,21.40
2022-11-09T21:33:19.478Z,30.60
2022-11-09T21:36:23.168Z,28.70
2022-11-09T21:39:26.845Z,21.20
2022-11-09T21:42:30.605Z,20.90
2022-11-09T21:45:34.251Z,21.30
2022-11-09T21:48:37.865Z,23.60
2022-11-09T21:51:41.859Z,23.90
2022-11-09T21:54:45.627Z,25.30
2022-11-09T21:57:49.935Z,28.40
2022-11-09T22:00:53.601Z,29.70
2022-11-09T22:03:57.500Z,31.70
2022-11-09T22:07:01.189Z,31.10
2022-11-09T22:10:10.515Z,33.20
2022-11-09T22:13:33.606Z,32.90
2022-11-09T22:16:37.415Z,32.50
2022-11-09T22:19:59.451Z,26.90
2022-11-09T22:23:06.782Z,32.10
2022-11-09T22:26:10.516Z,33.60
2022-11-09T22:29:14.193Z,32.80
2022-11-09T22:32:18.063Z,28.60
2022-11-09T22:35:21.715Z,27.60
2022-11-09T22:38:25.885Z,27.50
2022-11-09T22:41:29.551Z,21.30
2022-11-09T22:44:33.400Z,17.00
2022-11-09T22:47:37.005Z,16.40
2022-11-09T22:50:40.655Z,15.80
2022-11-09T22:53:47.694Z,20.50
2022-11-09T22:56:51.355Z,25.90
2022-11-09T22:59:55.053Z,26.90
2022-11-09T23:02:58.290Z,28.10
2022-11-09T23:06:05.989Z,26.70
2022-11-09T23:09:09.093Z,28.80
2022-11-09T23:12:12.083Z,24.40
2022-11-09T23:15:15.377Z,29.30
2022-11-09T23:18:41.960Z,27.80
2022-11-09T23:21:44.820Z,27.50
2022-11-09T23:25:06.369Z,24.80
2022-11-09T23:28:11.403Z,22.70
2022-11-09T23:31:18.893Z,20.50
2022-11-09T23:34:22.164Z,19.30
2022-11-09T23:37:25.149Z,19.50
2022-11-09T23:40:28.878Z,18.60
2022-11-09T23:43:32.254Z,18.80
2022-11-09T23:46:35.109Z,16.00
2022-11-09T23:49:37.965Z,15.90
2022-11-09T23:52:40.914Z,15.10
2022-11-09T23:55:43.801Z,15.90
2022-11-09T23:58:51.547Z,15.70
